NCAR-RAP Real-Time Weather Data

Output produced by METARs form (10 April 2020  07:28 UTC)
found at http://weather.rap.ucar.edu/surface/
 
KTOP 100653Z AUTO 36004KT 10SM CLR 01/M08 A3024 RMK AO2 SLP243 T00061078
KTOP 100553Z AUTO 01008KT 10SM CLR 02/M08 A3024 RMK AO2 SLP242 T00221078 10128 20022 401720022 51020
KTOP 100453Z AUTO 36011KT 10SM CLR 04/M09 A3022 RMK AO2 SLP235 T00391089
KTOP 100353Z AUTO 36010KT 10SM CLR 05/M08 A3020 RMK AO2 SLP230 T00501078
KTOP 100253Z AUTO 36014KT 10SM CLR 07/M08 A3018 RMK AO2 SLP221 T00671078 53038
KTOP 100153Z AUTO 36010G19KT 10SM CLR 08/M08 A3014 RMK AO2 PK WND 36026/0054 SLP208 T00781083
KTOP 100053Z AUTO 36016G26KT 10SM CLR 10/M08 A3009 RMK AO2 PK WND 35029/0001 SLP192 T01001078
KTOP 092353Z 35015G25KT 10SM CLR 13/M10 A3006 RMK AO2 PK WND 35031/2312 SLP182 T01281100 10172 20128 53006
KTOP 092253Z 33020G29KT 10SM CLR 15/M08 A3005 RMK AO2 PK WND 32035/2204 SLP177 T01501083
KTOP 092153Z 34017G25KT 10SM CLR 16/M06 A3004 RMK AO2 PK WND 31033/2114 SLP174 T01611056
KTOP 092053Z 31017G25KT 10SM FEW100 17/M04 A3004 RMK AO2 PK WND 30027/2043 SLP173 T01671044 58021
KTOP 091953Z 32019G30KT 10SM FEW100 SCT120 16/M04 A3007 RMK AO2 PK WND 30031/1939 SLP181 T01611039
KTOP 091853Z 30017G26KT 10SM BKN110 14/M05 A3010 RMK AO2 PK WND 31029/1828 SLP191 T01441050
KTOP 091753Z 32012G24KT 10SM CLR 14/M04 A3011 RMK AO2 SLP195 T01441044 10150 20039 58004
KTOP 091653Z 34015G21KT 10SM CLR 13/M04 A3012 RMK AO2 SLP199 T01281044
KTOP 091553Z 34012G18KT 10SM CLR 13/M06 A3012 RMK AO2 SLP199 T01281056
KTOP 091453Z 34011KT 10SM CLR 11/M07 A3012 RMK AO2 SLP198 T01111067 50013
KTOP 091353Z 34009KT 10SM CLR 09/M02 A3012 RMK AO2 SLP199 T00941022
KTOP 091253Z 35008KT 10SM CLR 06/M01 A3011 RMK AO2 SLP195 T00611011
KTOP 091153Z 32005KT 10SM CLR 04/M01 A3008 RMK AO2 SLP185 T00441011 10100 20033 53011
KTOP 091053Z AUTO 00000KT 10SM CLR 04/01 A3006 RMK AO2 SLP178 T00440006
KTOP 090953Z AUTO 22003KT 10SM CLR 05/01 A3006 RMK AO2 SLP175 T00500006
KTOP 090853Z AUTO 32003KT 10SM CLR 06/01 A3005 RMK AO2 SLP171 T00560006 58001